Orbital elements of ZHEDA PIXING 1B
| Launched | 21 September 2010 |
| Flight ended | – |
| Launch site | Jiuquan Space Center, PRC |
| Owner | People's Republic of China |
| NORAD ID | 37166 |
| Date fetched |
Epoch osculation |
Inc. [°] |
Ecc. | RA asc node [hr] |
Arg Peri. [°] |
Mean anom [°] |
Mean motion [rev/day] |
Abs. mag |
| Date fetched |
Epoch osculation |
Inc. [°] |
Ecc. | RA asc node [hr] |
Arg Peri. [°] |
Mean anom [°] |
Mean motion [rev/day] |
Abs. mag |
| 2026 May 01 17:56 | 2026 May 01 09:27:41 | 97.9451 | 0.00209 | 6.6162 | 75.7145 | 284.6390 | 14.91045 | – |
| 2026 Apr 30 17:56 | 2026 Apr 30 12:31:25 | 97.9450 | 0.00210 | 6.5576 | 78.0800 | 284.6390 | 14.91045 | – |
| 2026 Apr 29 17:57 | 2026 Apr 29 12:21:53 | 97.9451 | 0.00211 | 6.4900 | 81.3325 | 284.6390 | 14.91045 | – |
| 2026 Apr 28 17:56 | 2026 Apr 28 12:12:20 | 97.9453 | 0.00211 | 6.4225 | 84.5814 | 284.6390 | 14.91045 | – |
| 2026 Apr 27 17:58 | 2026 Apr 27 12:02:47 | 97.9455 | 0.00212 | 6.3549 | 87.8413 | 284.6390 | 14.91045 | – |
| 2026 Apr 26 17:58 | 2026 Apr 26 11:53:13 | 97.9455 | 0.00211 | 6.2873 | 90.8083 | 284.6390 | 14.91045 | – |
| 2026 Apr 25 17:58 | 2026 Apr 25 11:43:40 | 97.9454 | 0.00211 | 6.2198 | 93.9043 | 284.6390 | 14.91045 | – |
| 2026 Apr 24 17:59 | 2026 Apr 24 11:34:06 | 97.9455 | 0.00210 | 6.1522 | 97.1128 | 284.6390 | 14.91045 | – |
| 2026 Apr 23 17:57 | 2026 Apr 23 06:34:37 | 97.9456 | 0.00209 | 6.0712 | 100.6511 | 284.6390 | 14.91045 | – |
| 2026 Apr 22 17:57 | 2026 Apr 22 06:25:02 | 97.9455 | 0.00208 | 6.0036 | 103.7236 | 284.6390 | 14.91045 | – |
| 2026 Apr 21 17:57 | 2026 Apr 21 12:42:00 | 97.9454 | 0.00208 | 5.9541 | 105.9039 | 284.6390 | 14.91045 | – |
| 2026 Apr 20 17:57 | 2026 Apr 20 12:32:26 | 97.9451 | 0.00208 | 5.8865 | 108.7417 | 284.6390 | 14.91045 | – |
| 2026 Apr 19 17:58 | 2026 Apr 19 12:22:51 | 97.9449 | 0.00208 | 5.8189 | 111.8835 | 284.6390 | 14.91045 | – |
| 2026 Apr 18 17:56 | 2026 Apr 18 05:46:42 | 97.9445 | 0.00209 | 5.7333 | 115.8137 | 284.6390 | 14.91045 | – |
| 2026 Apr 16 17:57 | 2026 Apr 16 05:27:31 | 97.9437 | 0.00207 | 5.5982 | 122.2465 | 284.6390 | 14.91045 | – |
| 2026 Apr 14 17:57 | 2026 Apr 14 11:34:53 | 97.9435 | 0.00205 | 5.4811 | 127.9686 | 284.6390 | 14.91045 | – |
| 2026 Apr 13 17:57 | 2026 Apr 13 06:35:22 | 97.9438 | 0.00204 | 5.4001 | 131.7333 | 284.6390 | 14.91045 | – |
| 2026 Apr 12 17:57 | 2026 Apr 12 11:15:41 | 97.9439 | 0.00204 | 5.3461 | 134.3638 | 284.6390 | 14.91045 | – |
| 2026 Apr 11 17:57 | 2026 Apr 11 12:42:43 | 97.9442 | 0.00203 | 5.2831 | 137.2162 | 284.6390 | 14.91045 | – |
| 2026 Apr 10 17:58 | 2026 Apr 10 06:06:33 | 97.9445 | 0.00202 | 5.1975 | 140.9884 | 284.6390 | 14.91045 | – |
| 2026 Apr 09 18:01 | 2026 Apr 09 05:56:57 | 97.9448 | 0.00202 | 5.1300 | 144.1002 | 284.6390 | 14.91045 | – |
| 2026 Apr 08 17:57 | 2026 Apr 08 05:47:20 | 97.9449 | 0.00202 | 5.0624 | 147.1844 | 284.6390 | 14.91045 | – |
| 2026 Apr 07 17:57 | 2026 Apr 07 05:37:43 | 97.9445 | 0.00201 | 4.9949 | 150.2547 | 284.6390 | 14.91045 | – |
| 2026 Apr 06 17:57 | 2026 Apr 06 05:28:06 | 97.9442 | 0.00200 | 4.9273 | 153.5359 | 284.6390 | 14.91045 | – |
| 2026 Apr 05 17:56 | 2026 Apr 05 11:45:02 | 97.9439 | 0.00200 | 4.8778 | 155.9522 | 284.6390 | 14.91045 | – |
| 2026 Apr 04 17:57 | 2026 Apr 04 05:08:51 | 97.9431 | 0.00199 | 4.7922 | 160.3155 | 284.6390 | 14.91045 | – |